aviador You're here:

EIDW Decoded Metar

DUBLIN in IRELAND
Report Time2017-08-24 03:00:00
UTC Time2017-08-24 03:08:23
Flight Rules vfr VFR
Wind210° at 08 kt
W.Decomp.*RWY 16: 4.7 kt HW 6.5 kt RCW
RWY 28: 3.3 kt HW 7.3 kt LCW
W.Rank210° ranks 8
Current wind is below 210° avg. (11.5)
Visibility9999 m
Phenomena:N/A
Clouds:Few 020 Hf
Broken 050 Hf
Expected CloudBase > 800 ft AGL from Temp-Dew spread
Ceiling5,000 ft
Temp13°C (ISA -2)
Dew Point11°C (88% RH)
AAT10.5°C
QNH1012 hPa
Density Alt272 ft
Elevation242 ft
Report Wrong Elevation
Raw Report
METAR EIDW 240300Z 21008KT 180V240 9999 FEW020 BKN050 13/11 Q1012 NOSIG=

Extra information for EIDW:More info

Metar Taf Metar & Taf Last 4 Metars F.Rules Stats Wind Profile Meteogram Temp Stats Airport Information Weather charts Add Link Nearby VenuesMetar ALERT Operation Metar Decoded Social comments